createdAt,value
2023-04-22T00:00:41.206Z,11.40
2023-04-22T00:03:44.931Z,9.67
2023-04-22T00:06:47.207Z,11.05
2023-04-22T00:09:49.479Z,11.05
2023-04-22T00:12:51.488Z,11.02
2023-04-22T00:15:53.600Z,10.57
2023-04-22T00:18:55.607Z,12.07
2023-04-22T00:21:57.645Z,12.05
2023-04-22T00:24:59.679Z,12.95
2023-04-22T00:28:01.706Z,11.87
2023-04-22T00:31:04.915Z,12.40
2023-04-22T00:34:07.344Z,12.23
2023-04-22T00:37:09.329Z,12.27
2023-04-22T00:40:11.600Z,11.68
2023-04-22T00:43:13.946Z,11.05
2023-04-22T00:46:19.623Z,11.20
2023-04-22T00:49:21.956Z,10.07
2023-04-22T00:52:24.079Z,10.23
2023-04-22T00:55:26.348Z,10.38
2023-04-22T00:58:29.259Z,12.25
2023-04-22T01:01:31.849Z,12.82
2023-04-22T01:04:34.688Z,13.05
2023-04-22T01:07:36.860Z,13.93
2023-04-22T01:10:39.013Z,12.90
2023-04-22T01:13:41.706Z,12.25
2023-04-22T01:16:44.388Z,12.98
2023-04-22T01:19:47.643Z,13.43
2023-04-22T01:22:50.841Z,13.67
2023-04-22T01:25:52.897Z,12.68
2023-04-22T01:28:54.943Z,12.80
2023-04-22T01:31:57.571Z,11.95
2023-04-22T01:34:59.593Z,12.20
2023-04-22T01:38:01.764Z,12.35
2023-04-22T01:41:03.996Z,12.43
2023-04-22T01:44:06.542Z,12.73
2023-04-22T01:47:09.475Z,12.13
2023-04-22T01:50:11.514Z,12.27
2023-04-22T01:53:14.169Z,11.90
2023-04-22T01:56:16.166Z,13.40
2023-04-22T01:59:18.443Z,11.73
2023-04-22T02:02:20.701Z,10.80
2023-04-22T02:05:22.836Z,11.77
2023-04-22T02:08:24.813Z,11.40
2023-04-22T02:11:26.870Z,12.10
2023-04-22T02:14:28.948Z,12.40
2023-04-22T02:17:31.195Z,12.65
2023-04-22T02:20:33.144Z,12.05
2023-04-22T02:23:35.466Z,11.60
2023-04-22T02:26:37.496Z,11.73
2023-04-22T02:29:39.984Z,11.30
2023-04-22T02:32:43.125Z,11.05
2023-04-22T02:35:45.359Z,11.23
2023-04-22T02:38:52.143Z,12.05
2023-04-22T02:41:54.748Z,11.77
2023-04-22T02:44:56.961Z,12.02
2023-04-22T02:47:59.063Z,11.90
2023-04-22T02:51:01.177Z,11.57
2023-04-22T02:54:03.346Z,11.23
2023-04-22T02:57:05.417Z,10.03
2023-04-22T03:00:08.261Z,11.77
2023-04-22T03:03:10.830Z,11.35
2023-04-22T03:06:12.928Z,10.83
2023-04-22T03:09:14.990Z,10.75
2023-04-22T03:12:17.082Z,12.20
2023-04-22T03:15:21.232Z,11.02
2023-04-22T03:18:23.772Z,11.18
2023-04-22T03:21:25.822Z,10.82
2023-04-22T03:24:28.228Z,12.27
2023-04-22T03:27:30.352Z,11.70
2023-04-22T03:30:32.504Z,11.95
2023-04-22T03:33:34.542Z,10.73
2023-04-22T03:36:43.742Z,11.50
2023-04-22T03:39:45.934Z,12.18
2023-04-22T03:42:48.189Z,13.57
2023-04-22T03:45:53.250Z,12.85
2023-04-22T03:48:59.649Z,14.20
2023-04-22T03:52:04.705Z,13.02
2023-04-22T03:55:07.426Z,13.32
2023-04-22T03:58:10.904Z,12.27
2023-04-22T04:01:13.491Z,12.25
2023-04-22T04:04:18.873Z,10.52
2023-04-22T04:07:26.926Z,10.57
2023-04-22T04:10:29.023Z,9.13
2023-04-22T04:13:33.862Z,10.48
2023-04-22T04:16:56.062Z,12.88
2023-04-22T04:20:07.537Z,11.77
2023-04-22T04:23:10.955Z,12.00
2023-04-22T04:26:15.106Z,11.15
2023-04-22T04:29:20.882Z,12.50
2023-04-22T04:32:45.607Z,12.65
2023-04-22T04:35:49.357Z,11.75
2023-04-22T04:38:56.606Z,12.63
2023-04-22T04:42:00.519Z,13.43
2023-04-22T04:45:05.195Z,13.15
2023-04-22T04:48:08.072Z,13.52
2023-04-22T04:51:13.127Z,11.38
2023-04-22T04:54:22.572Z,11.10
2023-04-22T04:57:24.997Z,11.35
2023-04-22T05:00:27.354Z,10.70
2023-04-22T05:03:29.953Z,10.63
2023-04-22T05:06:32.926Z,10.30
2023-04-22T05:09:40.095Z,9.30
2023-04-22T05:12:44.267Z,9.13
2023-04-22T05:15:50.314Z,8.55
2023-04-22T05:18:53.155Z,9.88
2023-04-22T05:21:55.369Z,9.23
2023-04-22T05:24:57.547Z,9.23
2023-04-22T05:27:59.779Z,8.50
2023-04-22T05:31:06.930Z,7.87
2023-04-22T05:34:09.174Z,7.75
2023-04-22T05:37:12.446Z,7.45
2023-04-22T05:40:18.523Z,7.28
2023-04-22T05:43:20.789Z,7.90
2023-04-22T05:46:43.059Z,8.07
2023-04-22T05:49:45.528Z,7.72
2023-04-22T05:52:47.718Z,7.90
2023-04-22T05:55:52.078Z,8.00
2023-04-22T05:58:55.728Z,9.00
2023-04-22T06:01:59.189Z,10.02
2023-04-22T06:05:01.876Z,9.65
2023-04-22T06:08:04.043Z,9.03
2023-04-22T06:11:06.046Z,9.50
2023-04-22T06:14:10.579Z,9.38
2023-04-22T06:17:13.226Z,7.70
2023-04-22T06:20:15.567Z,8.03
2023-04-22T06:23:17.653Z,8.82
2023-04-22T06:26:19.790Z,7.85
2023-04-22T06:29:21.850Z,7.95
2023-04-22T06:32:23.857Z,8.73
2023-04-22T06:35:26.152Z,7.88
2023-04-22T06:38:29.974Z,8.05
2023-04-22T06:41:59.095Z,7.95
2023-04-22T06:45:15.617Z,8.10
2023-04-22T06:48:27.409Z,8.80
2023-04-22T06:51:48.090Z,8.30
2023-04-22T06:54:50.079Z,8.70
2023-04-22T06:57:52.239Z,7.47
2023-04-22T07:00:54.460Z,7.40
2023-04-22T07:03:56.637Z,7.80
2023-04-22T07:06:59.237Z,7.72
2023-04-22T07:10:01.310Z,7.80
2023-04-22T07:13:09.997Z,6.25
2023-04-22T07:16:12.029Z,5.07
2023-04-22T07:19:14.198Z,5.35
2023-04-22T07:22:16.454Z,6.20
2023-04-22T07:25:18.491Z,5.35
2023-04-22T07:28:20.609Z,6.00
2023-04-22T07:31:22.647Z,6.57
2023-04-22T07:34:24.668Z,6.13
2023-04-22T07:37:26.712Z,9.88
2023-04-22T07:40:28.694Z,7.10
2023-04-22T07:43:30.691Z,6.07
2023-04-22T07:46:32.796Z,6.00
2023-04-22T07:49:34.921Z,5.88
2023-04-22T07:52:36.936Z,6.70
2023-04-22T07:55:38.935Z,6.93
2023-04-22T07:58:40.985Z,6.60
2023-04-22T08:01:43.084Z,6.93
2023-04-22T08:04:45.293Z,7.07
2023-04-22T08:07:47.468Z,6.60
2023-04-22T08:10:49.519Z,6.85
2023-04-22T08:13:51.846Z,6.35
2023-04-22T08:16:53.976Z,7.07
2023-04-22T08:19:56.031Z,6.43
2023-04-22T08:23:00.646Z,6.72
2023-04-22T08:26:03.296Z,6.15
2023-04-22T08:29:05.743Z,7.28
2023-04-22T08:32:07.998Z,6.93
2023-04-22T08:35:10.081Z,6.40
2023-04-22T08:38:12.085Z,6.05
2023-04-22T08:41:14.230Z,6.25
2023-04-22T08:44:16.721Z,6.65
2023-04-22T08:47:19.288Z,6.10
2023-04-22T08:50:25.393Z,6.25
2023-04-22T08:53:27.478Z,6.22
2023-04-22T08:56:30.035Z,6.65
2023-04-22T08:59:32.165Z,7.25
2023-04-22T09:02:34.244Z,6.53
2023-04-22T09:05:37.640Z,6.15
2023-04-22T09:08:40.272Z,6.28
2023-04-22T09:11:42.356Z,6.28
2023-04-22T09:14:44.594Z,7.05
2023-04-22T09:17:46.680Z,7.07
2023-04-22T09:20:49.200Z,6.43
2023-04-22T09:23:52.546Z,6.45
2023-04-22T09:26:55.828Z,6.55
2023-04-22T09:29:57.912Z,6.65
2023-04-22T09:33:04.557Z,6.70
2023-04-22T09:36:10.170Z,6.03
2023-04-22T09:39:12.244Z,6.78
2023-04-22T09:42:14.271Z,6.50
2023-04-22T09:45:24.941Z,5.82
2023-04-22T09:48:27.042Z,6.00
2023-04-22T09:51:29.480Z,6.15
2023-04-22T09:54:31.497Z,6.40
2023-04-22T09:57:33.518Z,6.00
2023-04-22T10:00:39.537Z,5.50
2023-04-22T10:03:41.652Z,5.60
2023-04-22T10:06:43.771Z,6.40
2023-04-22T10:09:45.886Z,5.80
2023-04-22T10:12:49.132Z,6.18
2023-04-22T10:15:52.548Z,5.90
2023-04-22T10:18:54.833Z,5.57
2023-04-22T10:21:57.854Z,5.30
2023-04-22T10:25:00.011Z,5.80
2023-04-22T10:28:06.223Z,5.22
2023-04-22T10:31:19.901Z,6.38
2023-04-22T10:34:21.966Z,5.33
2023-04-22T10:37:25.516Z,5.18
2023-04-22T10:40:27.511Z,4.78
2023-04-22T10:43:42.569Z,4.95
2023-04-22T10:46:50.591Z,5.70
2023-04-22T10:50:08.684Z,5.40
2023-04-22T10:53:36.874Z,5.57
2023-04-22T10:56:58.854Z,5.47
2023-04-22T11:00:00.957Z,5.30
2023-04-22T11:03:05.896Z,5.22
2023-04-22T11:06:18.450Z,6.23
2023-04-22T11:09:21.488Z,5.28
2023-04-22T11:12:35.952Z,4.78
2023-04-22T11:15:39.084Z,4.72
2023-04-22T11:18:41.333Z,5.05
2023-04-22T11:21:43.746Z,4.53
2023-04-22T11:24:55.762Z,4.97
2023-04-22T11:27:57.939Z,6.00
2023-04-22T11:31:07.149Z,5.00
2023-04-22T11:34:09.495Z,4.75
2023-04-22T11:37:11.519Z,5.87
2023-04-22T11:40:36.742Z,5.00
2023-04-22T11:43:49.497Z,5.22
2023-04-22T11:46:51.537Z,5.15
2023-04-22T11:49:57.319Z,5.18
2023-04-22T11:53:03.596Z,4.73
2023-04-22T11:56:05.540Z,5.20
2023-04-22T11:59:09.215Z,5.43
2023-04-22T12:02:11.485Z,4.85
2023-04-22T12:05:13.678Z,4.07
2023-04-22T12:08:17.219Z,4.77
2023-04-22T12:11:21.376Z,5.78
2023-04-22T12:14:33.272Z,5.70
2023-04-22T12:17:35.449Z,5.50
2023-04-22T12:20:37.939Z,5.65
2023-04-22T12:24:04.921Z,5.70
2023-04-22T12:27:06.964Z,5.03
2023-04-22T12:30:09.217Z,4.72
2023-04-22T12:33:11.714Z,4.90
2023-04-22T12:36:13.762Z,6.32
2023-04-22T12:39:15.881Z,5.10
2023-04-22T12:42:17.842Z,5.05
2023-04-22T12:45:20.021Z,4.43
2023-04-22T12:48:22.093Z,5.20
2023-04-22T12:51:24.198Z,5.30
2023-04-22T12:54:26.246Z,5.37
2023-04-22T12:57:28.269Z,4.43
2023-04-22T13:00:30.284Z,5.57
2023-04-22T13:03:32.455Z,4.85
2023-04-22T13:06:34.699Z,4.40
2023-04-22T13:09:36.748Z,4.97
2023-04-22T13:12:39.344Z,5.07
2023-04-22T13:15:41.410Z,5.38
2023-04-22T13:18:43.490Z,5.45
2023-04-22T13:21:45.539Z,4.80
2023-04-22T13:24:47.586Z,5.00
2023-04-22T13:27:49.591Z,4.95
2023-04-22T13:30:51.987Z,4.63
2023-04-22T13:33:55.342Z,4.93
2023-04-22T13:36:57.716Z,4.30
2023-04-22T13:39:59.723Z,4.17
2023-04-22T13:43:01.890Z,4.45
2023-04-22T13:46:03.950Z,4.97
2023-04-22T13:49:06.046Z,5.03
2023-04-22T13:52:08.182Z,4.80
2023-04-22T13:55:10.533Z,4.00
2023-04-22T13:58:12.504Z,4.10
2023-04-22T14:01:14.573Z,4.40
2023-04-22T14:04:16.637Z,4.47
2023-04-22T14:07:18.689Z,4.35
2023-04-22T14:10:22.166Z,4.07
2023-04-22T14:13:24.173Z,4.40
2023-04-22T14:16:26.353Z,4.93
2023-04-22T14:19:30.330Z,4.20
2023-04-22T14:22:32.504Z,4.30
2023-04-22T14:25:34.513Z,4.93
2023-04-22T14:28:37.064Z,4.32
2023-04-22T14:31:39.068Z,4.72
2023-04-22T14:34:41.066Z,4.00
2023-04-22T14:37:45.107Z,4.50
2023-04-22T14:40:47.442Z,4.63
2023-04-22T14:43:49.633Z,4.50
2023-04-22T14:46:51.663Z,4.25
2023-04-22T14:49:53.697Z,5.25
2023-04-22T14:52:55.970Z,4.45
2023-04-22T14:55:58.064Z,4.67
2023-04-22T14:59:00.132Z,4.97
2023-04-22T15:02:02.277Z,4.88
2023-04-22T15:05:04.529Z,4.70
2023-04-22T15:08:06.616Z,4.35
2023-04-22T15:11:08.630Z,4.20
2023-04-22T15:14:10.591Z,4.75
2023-04-22T15:17:13.024Z,11.90
2023-04-22T15:20:15.111Z,7.47
2023-04-22T15:23:17.127Z,18.85
2023-04-22T15:26:19.130Z,7.47
2023-04-22T15:29:21.482Z,5.28
2023-04-22T15:32:23.513Z,4.85
2023-04-22T15:35:25.533Z,4.10
2023-04-22T15:38:27.840Z,4.97
2023-04-22T15:41:29.814Z,5.53
2023-04-22T15:44:31.847Z,5.28
2023-04-22T15:47:34.017Z,4.45
2023-04-22T15:50:38.239Z,28.73
2023-04-22T15:53:41.662Z,7.75
2023-04-22T15:56:43.695Z,5.77
2023-04-22T15:59:46.927Z,4.03
2023-04-22T16:02:55.542Z,4.80
2023-04-22T16:05:57.958Z,4.30
2023-04-22T16:08:59.985Z,4.80
2023-04-22T16:12:02.101Z,6.10
2023-04-22T16:15:04.352Z,6.53
2023-04-22T16:18:06.860Z,10.80
2023-04-22T16:21:10.358Z,7.03
2023-04-22T16:24:14.633Z,9.82
2023-04-22T16:27:18.131Z,20.60
2023-04-22T16:30:20.266Z,17.85
2023-04-22T16:33:22.299Z,12.15
2023-04-22T16:36:24.616Z,25.27
2023-04-22T16:39:26.566Z,17.83
2023-04-22T16:42:29.225Z,5.93
2023-04-22T16:45:31.764Z,5.25
2023-04-22T16:48:33.791Z,6.22
2023-04-22T16:51:35.909Z,6.10
2023-04-22T16:54:37.999Z,7.68
2023-04-22T16:57:40.053Z,7.93
2023-04-22T17:00:42.085Z,8.80
2023-04-22T17:03:44.264Z,11.15
2023-04-22T17:06:46.575Z,10.95
2023-04-22T17:09:48.981Z,13.48
2023-04-22T17:12:53.034Z,11.47
2023-04-22T17:15:55.073Z,10.93
2023-04-22T17:18:57.124Z,12.13
2023-04-22T17:21:59.194Z,11.77
2023-04-22T17:25:01.211Z,25.52
2023-04-22T17:28:03.489Z,15.37
2023-04-22T17:31:05.631Z,19.35
2023-04-22T17:34:07.751Z,16.35
2023-04-22T17:37:09.746Z,10.38
2023-04-22T17:40:11.821Z,8.70
2023-04-22T17:43:13.932Z,8.53
2023-04-22T17:46:16.295Z,12.40
2023-04-22T17:49:18.323Z,18.35
2023-04-22T17:52:20.358Z,12.10
2023-04-22T17:55:22.519Z,13.18
2023-04-22T17:58:25.601Z,11.87
2023-04-22T18:01:29.626Z,13.20
2023-04-22T18:04:31.999Z,19.73
2023-04-22T18:07:34.115Z,29.33
2023-04-22T18:10:36.514Z,40.92
2023-04-22T18:13:39.436Z,29.53
2023-04-22T18:16:41.501Z,26.95
2023-04-22T18:19:44.695Z,20.67
2023-04-22T18:22:48.252Z,35.65
2023-04-22T18:25:50.406Z,29.65
2023-04-22T18:28:52.478Z,26.00
2023-04-22T18:31:54.552Z,23.45
2023-04-22T18:34:56.625Z,15.50
2023-04-22T18:37:58.617Z,18.10
2023-04-22T18:41:00.616Z,17.00
2023-04-22T18:44:02.676Z,19.00
2023-04-22T18:47:05.216Z,19.50
2023-04-22T18:50:07.558Z,30.05
2023-04-22T18:53:09.729Z,29.83
2023-04-22T18:56:11.796Z,28.67
2023-04-22T18:59:13.836Z,25.87
2023-04-22T19:02:16.161Z,24.40
2023-04-22T19:05:18.443Z,28.58
2023-04-22T19:08:20.484Z,35.92
2023-04-22T19:11:22.774Z,31.00
2023-04-22T19:14:24.970Z,30.33
2023-04-22T19:17:27.485Z,30.08
2023-04-22T19:20:29.684Z,28.65
2023-04-22T19:23:31.773Z,47.47
2023-04-22T19:26:34.088Z,26.95
2023-04-22T19:29:36.132Z,19.63
2023-04-22T19:32:38.336Z,18.33
2023-04-22T19:35:40.418Z,15.20
2023-04-22T19:38:43.382Z,10.93
2023-04-22T19:41:45.399Z,10.77
2023-04-22T19:44:48.452Z,9.80
2023-04-22T19:47:50.668Z,8.45
2023-04-22T19:50:52.723Z,8.90
2023-04-22T19:53:54.797Z,11.02
2023-04-22T19:56:58.581Z,13.77
2023-04-22T20:00:01.627Z,11.23
2023-04-22T20:03:04.381Z,15.48
2023-04-22T20:06:07.271Z,16.35
2023-04-22T20:09:10.442Z,12.75
2023-04-22T20:12:12.704Z,11.68
2023-04-22T20:15:15.057Z,12.57
2023-04-22T20:18:17.792Z,12.93
2023-04-22T20:21:20.054Z,13.57
2023-04-22T20:24:22.124Z,11.38
2023-04-22T20:27:25.772Z,11.15
2023-04-22T20:30:28.017Z,10.07
2023-04-22T20:33:30.052Z,9.73
2023-04-22T20:36:32.912Z,10.02
2023-04-22T20:39:35.737Z,9.73
2023-04-22T20:42:37.852Z,9.30
2023-04-22T20:45:40.235Z,9.57
2023-04-22T20:48:42.725Z,8.68
2023-04-22T20:51:44.700Z,8.60
2023-04-22T20:54:51.198Z,7.95
2023-04-22T20:57:53.235Z,7.72
2023-04-22T21:00:55.791Z,9.53
2023-04-22T21:03:58.522Z,8.52
2023-04-22T21:07:04.078Z,8.95
2023-04-22T21:10:06.533Z,9.50
2023-04-22T21:13:08.746Z,11.27
2023-04-22T21:16:11.327Z,13.70
2023-04-22T21:19:13.618Z,14.40
2023-04-22T21:22:18.954Z,12.65
2023-04-22T21:25:21.609Z,17.88
2023-04-22T21:28:24.003Z,18.55
2023-04-22T21:31:27.181Z,14.10
2023-04-22T21:34:29.753Z,16.38
2023-04-22T21:37:33.318Z,15.70
2023-04-22T21:40:35.939Z,14.15
2023-04-22T21:43:37.961Z,13.70
2023-04-22T21:46:40.091Z,23.00
2023-04-22T21:49:43.173Z,22.48
2023-04-22T21:52:45.150Z,21.88
2023-04-22T21:55:47.170Z,21.77
2023-04-22T21:58:49.191Z,19.70
2023-04-22T22:01:51.639Z,21.35
2023-04-22T22:04:53.869Z,18.90
2023-04-22T22:07:56.063Z,18.33
2023-04-22T22:10:58.132Z,19.63
2023-04-22T22:14:00.194Z,19.83
2023-04-22T22:17:02.240Z,20.98
2023-04-22T22:20:06.372Z,20.60
2023-04-22T22:23:08.454Z,20.30
2023-04-22T22:26:10.461Z,20.30
2023-04-22T22:29:15.654Z,20.10
2023-04-22T22:32:17.768Z,19.83
2023-04-22T22:35:19.818Z,20.20
2023-04-22T22:38:21.889Z,18.90
2023-04-22T22:41:23.931Z,20.20
2023-04-22T22:44:25.953Z,21.40
2023-04-22T22:47:27.983Z,18.85
2023-04-22T22:50:30.046Z,20.58
2023-04-22T22:53:34.378Z,21.00
2023-04-22T22:56:36.434Z,21.48
2023-04-22T22:59:39.269Z,20.93
2023-04-22T23:02:41.608Z,20.15
2023-04-22T23:05:43.738Z,20.38
2023-04-22T23:08:45.791Z,21.27
2023-04-22T23:11:52.124Z,19.80
2023-04-22T23:14:54.172Z,20.20
2023-04-22T23:17:56.344Z,20.48
2023-04-22T23:20:59.894Z,20.50
2023-04-22T23:24:02.013Z,18.57
2023-04-22T23:27:04.584Z,21.17
2023-04-22T23:30:06.974Z,18.67
2023-04-22T23:33:09.590Z,22.25
2023-04-22T23:36:12.693Z,18.85
2023-04-22T23:39:14.741Z,19.88
2023-04-22T23:42:16.766Z,19.13
2023-04-22T23:45:18.821Z,20.43
2023-04-22T23:48:20.892Z,23.40
2023-04-22T23:51:23.004Z,24.52
2023-04-22T23:54:25.189Z,21.38
2023-04-22T23:57:27.305Z,23.97
